createdAt,value
2022-11-21T00:00:33.175Z,9.80
2022-11-21T00:03:01.698Z,8.75
2022-11-21T00:05:30.100Z,8.75
2022-11-21T00:07:57.738Z,10.20
2022-11-21T00:10:25.801Z,10.18
2022-11-21T00:12:57.033Z,11.25
2022-11-21T00:15:25.734Z,9.93
2022-11-21T00:17:53.001Z,10.52
2022-11-21T00:20:21.494Z,9.35
2022-11-21T00:22:48.983Z,9.88
2022-11-21T00:25:16.271Z,9.68
2022-11-21T00:27:43.182Z,9.52
2022-11-21T00:30:11.760Z,8.13
2022-11-21T00:32:39.064Z,8.68
2022-11-21T00:35:06.869Z,9.02
2022-11-21T00:37:34.086Z,8.88
2022-11-21T00:40:01.329Z,11.10
2022-11-21T00:42:28.257Z,9.50
2022-11-21T00:44:55.106Z,7.82
2022-11-21T00:49:48.603Z,8.48
2022-11-21T00:54:43.159Z,6.43
2022-11-21T00:57:10.159Z,7.18
2022-11-21T00:59:37.072Z,8.57
2022-11-21T01:02:05.531Z,8.05
2022-11-21T01:04:33.486Z,8.43
2022-11-21T01:07:00.522Z,7.25
2022-11-21T01:09:28.798Z,9.85
2022-11-21T01:11:56.798Z,9.15
2022-11-21T01:14:24.742Z,8.45
2022-11-21T01:16:51.868Z,7.62
2022-11-21T01:21:46.416Z,7.72
2022-11-21T01:24:13.372Z,7.75
2022-11-21T01:26:40.449Z,7.47
2022-11-21T01:29:08.943Z,7.50
2022-11-21T01:31:36.240Z,7.90
2022-11-21T01:34:03.194Z,6.50
2022-11-21T01:36:31.831Z,7.47
2022-11-21T01:39:00.960Z,9.25
2022-11-21T01:41:33.921Z,7.65
2022-11-21T01:44:01.858Z,7.70
2022-11-21T01:46:28.998Z,7.68
2022-11-21T01:49:18.380Z,8.43
2022-11-21T01:51:50.325Z,8.27
2022-11-21T01:54:21.842Z,8.40
2022-11-21T01:57:06.577Z,9.60
2022-11-21T01:59:56.587Z,10.23
2022-11-21T02:02:28.143Z,11.02
2022-11-21T02:04:56.204Z,11.75
2022-11-21T02:07:23.676Z,11.38
2022-11-21T02:09:54.698Z,12.07
2022-11-21T02:12:32.029Z,12.88
2022-11-21T02:17:29.789Z,12.82
2022-11-21T02:20:00.029Z,13.73
2022-11-21T02:22:40.841Z,14.75
2022-11-21T02:25:18.246Z,12.95
2022-11-21T02:30:13.011Z,12.90
2022-11-21T02:32:42.641Z,13.45
2022-11-21T02:35:09.629Z,13.93
2022-11-21T02:37:37.572Z,14.63
2022-11-21T02:40:19.181Z,14.55
2022-11-21T02:42:52.958Z,14.60
2022-11-21T02:45:30.983Z,14.07
2022-11-21T02:48:02.417Z,13.60
2022-11-21T02:50:32.789Z,13.62
2022-11-21T02:52:59.810Z,13.82
2022-11-21T02:55:27.214Z,12.70
2022-11-21T02:57:54.704Z,12.50
2022-11-21T03:00:22.068Z,13.30
2022-11-21T03:02:48.944Z,12.80
2022-11-21T03:05:18.087Z,12.90
2022-11-21T03:07:45.294Z,13.18
2022-11-21T03:10:12.869Z,11.12
2022-11-21T03:12:40.611Z,13.45
2022-11-21T03:15:09.978Z,11.38
2022-11-21T03:17:36.865Z,11.98
2022-11-21T03:20:04.871Z,12.98
2022-11-21T03:22:32.100Z,14.68
2022-11-21T03:24:58.955Z,12.73
2022-11-21T03:29:52.517Z,11.45
2022-11-21T03:34:46.065Z,12.48
2022-11-21T03:37:12.960Z,11.00
2022-11-21T03:39:39.821Z,12.70
2022-11-21T03:44:33.355Z,12.98
2022-11-21T03:47:00.216Z,11.48
2022-11-21T03:51:53.775Z,12.40
2022-11-21T03:54:20.620Z,12.23
2022-11-21T03:59:15.159Z,10.43
2022-11-21T04:01:42.132Z,12.07
2022-11-21T04:04:09.043Z,12.88
2022-11-21T04:06:35.909Z,11.50
2022-11-21T04:11:29.508Z,11.10
2022-11-21T04:16:23.073Z,13.90
2022-11-21T04:18:50.010Z,12.57
2022-11-21T04:21:16.919Z,12.57
2022-11-21T04:23:43.798Z,10.95
2022-11-21T04:26:10.652Z,13.38
2022-11-21T04:31:10.810Z,10.45
2022-11-21T04:33:39.345Z,10.60
2022-11-21T04:36:08.401Z,11.60
2022-11-21T04:38:35.494Z,11.50
2022-11-21T04:41:02.325Z,12.70
2022-11-21T04:45:55.914Z,12.15
2022-11-21T04:50:49.503Z,10.45
2022-11-21T04:55:43.093Z,9.02
2022-11-21T05:00:36.639Z,17.42
2022-11-21T05:03:04.747Z,6.55
2022-11-21T05:05:31.993Z,10.52
2022-11-21T05:07:59.030Z,7.78
2022-11-21T05:10:26.035Z,8.00
2022-11-21T05:13:35.057Z,7.87
2022-11-21T05:16:02.149Z,7.45
2022-11-21T05:18:28.994Z,10.73
2022-11-21T05:23:22.566Z,20.30
2022-11-21T05:25:49.395Z,19.83
2022-11-21T05:30:42.992Z,8.73
2022-11-21T05:33:09.826Z,11.60
2022-11-21T05:38:10.459Z,12.02
2022-11-21T05:40:37.349Z,9.63
2022-11-21T05:43:22.714Z,10.73
2022-11-21T05:45:50.447Z,9.90
2022-11-21T05:48:18.015Z,10.85
2022-11-21T05:50:48.603Z,13.00
2022-11-21T05:53:15.905Z,11.43
2022-11-21T05:55:42.724Z,12.57
2022-11-21T06:00:39.301Z,13.65
2022-11-21T06:03:25.803Z,15.20
2022-11-21T06:05:53.631Z,12.65
2022-11-21T06:08:20.486Z,13.32
2022-11-21T06:13:25.042Z,10.75
2022-11-21T06:16:00.111Z,10.38
2022-11-21T06:18:28.146Z,10.32
2022-11-21T06:20:55.274Z,10.10
2022-11-21T06:23:22.175Z,8.90
2022-11-21T06:25:57.134Z,9.00
2022-11-21T06:28:24.490Z,9.20
2022-11-21T06:30:52.259Z,9.15
2022-11-21T06:33:19.186Z,8.82
2022-11-21T06:35:46.055Z,9.05
2022-11-21T06:40:41.143Z,7.43
2022-11-21T06:43:08.000Z,11.73
2022-11-21T06:48:03.256Z,9.02
2022-11-21T06:50:31.415Z,8.43
2022-11-21T06:52:59.224Z,8.70
2022-11-21T06:55:27.716Z,9.75
2022-11-21T06:57:58.079Z,11.12
2022-11-21T07:00:25.853Z,9.55
2022-11-21T07:02:52.679Z,10.10
2022-11-21T07:07:46.245Z,10.90
2022-11-21T07:10:13.077Z,10.02
2022-11-21T07:15:25.290Z,11.45
2022-11-21T07:17:52.346Z,9.80
2022-11-21T07:20:19.375Z,9.23
2022-11-21T07:22:46.233Z,8.25
2022-11-21T07:27:39.737Z,6.28
2022-11-21T07:32:33.615Z,6.78
2022-11-21T07:37:27.462Z,5.30
2022-11-21T07:39:54.308Z,5.78
2022-11-21T07:44:47.862Z,7.10
2022-11-21T07:47:14.784Z,8.02
2022-11-21T07:49:49.748Z,9.05
2022-11-21T07:52:19.841Z,9.00
2022-11-21T07:54:46.717Z,9.65
2022-11-21T07:57:13.547Z,7.10
2022-11-21T08:02:07.082Z,11.18
2022-11-21T08:04:33.952Z,10.25
2022-11-21T08:09:30.314Z,7.68
2022-11-21T08:11:57.331Z,9.88
2022-11-21T08:14:24.185Z,7.80
2022-11-21T08:19:19.901Z,10.13
2022-11-21T08:21:46.829Z,9.10
2022-11-21T08:24:14.882Z,9.63
2022-11-21T08:26:41.871Z,8.02
2022-11-21T08:29:10.279Z,9.23
2022-11-21T08:31:38.026Z,16.15
2022-11-21T08:34:06.414Z,22.23
2022-11-21T08:36:34.941Z,13.75
2022-11-21T08:39:02.315Z,11.57
2022-11-21T08:41:47.877Z,11.70
2022-11-21T08:44:14.731Z,15.25
2022-11-21T08:49:08.652Z,10.65
2022-11-21T08:51:36.037Z,14.20
2022-11-21T08:54:03.332Z,20.02
2022-11-21T08:56:30.975Z,13.50
2022-11-21T08:58:58.168Z,10.75
2022-11-21T09:01:25.184Z,9.38
2022-11-21T09:03:52.113Z,9.93
2022-11-21T09:08:47.635Z,8.45
2022-11-21T09:11:14.515Z,8.82
2022-11-21T09:13:41.351Z,9.65
2022-11-21T09:18:53.636Z,9.85
2022-11-21T09:23:47.935Z,12.33
2022-11-21T09:26:14.874Z,10.32
2022-11-21T09:28:41.745Z,8.95
2022-11-21T09:33:36.003Z,8.90
2022-11-21T09:36:02.956Z,10.35
2022-11-21T09:38:32.538Z,10.45
2022-11-21T09:41:47.017Z,11.50
2022-11-21T09:44:47.315Z,10.43
2022-11-21T09:47:52.835Z,10.77
2022-11-21T09:50:38.427Z,11.05
2022-11-21T09:53:28.388Z,10.45
2022-11-21T09:55:59.432Z,10.52
2022-11-21T09:58:40.754Z,10.30
2022-11-21T10:01:12.458Z,9.00
2022-11-21T10:03:50.317Z,9.40
2022-11-21T10:06:27.129Z,11.50
2022-11-21T10:09:16.376Z,9.52
2022-11-21T10:12:21.087Z,9.60
2022-11-21T10:15:14.385Z,9.98
2022-11-21T10:17:45.971Z,9.82
2022-11-21T10:20:34.185Z,9.43
2022-11-21T10:23:04.124Z,9.45
2022-11-21T10:25:38.549Z,10.32
2022-11-21T10:28:11.439Z,9.18
2022-11-21T10:30:43.148Z,8.85
2022-11-21T10:33:16.359Z,11.50
2022-11-21T10:35:50.988Z,10.00
2022-11-21T10:38:29.315Z,8.95
2022-11-21T10:41:10.990Z,10.80
2022-11-21T10:44:09.081Z,10.73
2022-11-21T10:46:36.173Z,10.88
2022-11-21T10:49:04.733Z,9.32
2022-11-21T10:51:41.032Z,10.93
2022-11-21T10:54:29.187Z,13.32
2022-11-21T10:57:06.501Z,10.00
2022-11-21T10:59:33.694Z,9.20
2022-11-21T11:02:01.724Z,9.68
2022-11-21T11:04:35.671Z,10.25
2022-11-21T11:07:24.138Z,9.80
2022-11-21T11:09:52.711Z,9.60
2022-11-21T11:12:51.392Z,9.68
2022-11-21T11:15:26.317Z,10.10
2022-11-21T11:17:56.825Z,9.50
2022-11-21T11:20:38.663Z,9.20
2022-11-21T11:23:24.598Z,10.02
2022-11-21T11:25:54.170Z,9.05
2022-11-21T11:28:21.327Z,9.35
2022-11-21T11:30:49.219Z,9.27
2022-11-21T11:33:40.307Z,10.32
2022-11-21T11:36:44.696Z,10.60
2022-11-21T11:39:41.038Z,11.07
2022-11-21T11:42:48.977Z,10.43
2022-11-21T11:45:40.869Z,10.15
2022-11-21T11:48:11.232Z,9.90
2022-11-21T11:50:50.607Z,9.82
2022-11-21T11:53:23.755Z,10.98
2022-11-21T11:55:58.479Z,10.45
2022-11-21T11:58:34.302Z,10.75
2022-11-21T12:01:06.985Z,10.13
2022-11-21T12:03:58.121Z,9.10
2022-11-21T12:06:52.494Z,9.80
2022-11-21T12:12:09.071Z,8.82
2022-11-21T12:15:42.346Z,9.13
2022-11-21T12:18:21.335Z,10.27
2022-11-21T12:21:08.508Z,9.95
2022-11-21T12:23:51.394Z,11.32
2022-11-21T12:26:20.972Z,13.62
2022-11-21T12:29:12.552Z,11.35
2022-11-21T12:31:58.293Z,11.12
2022-11-21T12:34:43.385Z,12.00
2022-11-21T12:37:23.732Z,14.68
2022-11-21T12:40:27.020Z,12.70
2022-11-21T12:43:12.577Z,12.40
2022-11-21T12:45:47.406Z,13.68
2022-11-21T12:48:47.176Z,12.27
2022-11-21T12:51:45.867Z,12.50
2022-11-21T12:54:41.087Z,13.50
2022-11-21T12:57:12.863Z,16.45
2022-11-21T13:00:14.223Z,13.80
2022-11-21T13:03:16.495Z,13.32
2022-11-21T13:05:47.037Z,12.37
2022-11-21T13:08:24.024Z,14.48
2022-11-21T13:14:12.459Z,12.20
2022-11-21T13:16:45.190Z,11.12
2022-11-21T13:19:20.748Z,12.90
2022-11-21T13:21:49.684Z,12.15
2022-11-21T13:24:48.091Z,13.38
2022-11-21T13:27:25.077Z,11.35
2022-11-21T13:30:07.049Z,12.57
2022-11-21T13:32:50.943Z,13.40
2022-11-21T13:35:20.769Z,13.38
2022-11-21T13:37:50.827Z,14.60
2022-11-21T13:40:28.010Z,15.57
2022-11-21T13:43:32.472Z,14.80
2022-11-21T13:45:59.545Z,13.00
2022-11-21T13:48:32.246Z,13.70
2022-11-21T13:51:01.955Z,17.60
2022-11-21T13:53:59.615Z,36.10
2022-11-21T13:56:36.074Z,23.02
2022-11-21T13:59:26.131Z,17.90
2022-11-21T14:02:18.210Z,16.25
2022-11-21T14:04:50.156Z,16.42
2022-11-21T14:07:31.172Z,16.42
2022-11-21T14:10:00.234Z,12.80
2022-11-21T14:12:44.127Z,12.18
2022-11-21T14:15:20.949Z,14.40
2022-11-21T14:17:56.395Z,13.93
2022-11-21T14:20:32.062Z,14.70
2022-11-21T14:23:04.571Z,14.48
2022-11-21T14:25:47.371Z,12.90
2022-11-21T14:28:25.278Z,14.35
2022-11-21T14:31:08.758Z,11.60
2022-11-21T14:33:37.662Z,14.00
2022-11-21T14:36:16.405Z,12.88
2022-11-21T14:38:50.977Z,14.13
2022-11-21T14:41:27.255Z,13.85
2022-11-21T14:44:01.478Z,14.82
2022-11-21T14:46:37.098Z,14.35
2022-11-21T14:49:21.853Z,14.60
2022-11-21T14:52:02.076Z,15.15
2022-11-21T14:55:06.382Z,11.95
2022-11-21T14:57:37.113Z,16.77
2022-11-21T15:00:06.519Z,14.00
2022-11-21T15:02:34.419Z,16.40
2022-11-21T15:05:04.589Z,14.98
2022-11-21T15:07:43.776Z,15.50
2022-11-21T15:10:31.100Z,17.55
2022-11-21T15:13:03.412Z,17.55
2022-11-21T15:15:47.748Z,17.08
2022-11-21T15:18:27.607Z,16.12
2022-11-21T15:21:00.629Z,16.05
2022-11-21T15:23:28.234Z,15.07
2022-11-21T15:26:00.698Z,15.63
2022-11-21T15:28:29.503Z,15.40
2022-11-21T15:31:19.588Z,14.75
2022-11-21T15:34:34.428Z,15.07
2022-11-21T15:37:16.511Z,15.32
2022-11-21T15:39:44.879Z,12.80
2022-11-21T15:42:33.779Z,13.62
2022-11-21T15:45:02.732Z,13.07
2022-11-21T15:47:29.639Z,13.35
2022-11-21T15:49:56.540Z,13.80
2022-11-21T15:52:23.641Z,13.20
2022-11-21T15:54:50.566Z,13.32
2022-11-21T15:59:50.714Z,13.38
2022-11-21T16:02:17.611Z,12.98
2022-11-21T16:04:44.478Z,13.32
2022-11-21T16:09:38.813Z,11.98
2022-11-21T16:12:05.736Z,13.15
2022-11-21T16:14:32.608Z,14.93
2022-11-21T16:19:26.476Z,12.88
2022-11-21T16:21:53.795Z,14.55
2022-11-21T16:24:20.791Z,13.13
2022-11-21T16:26:49.432Z,13.45
2022-11-21T16:29:16.297Z,13.30
2022-11-21T16:34:09.832Z,13.18
2022-11-21T16:36:36.783Z,12.90
2022-11-21T16:39:09.939Z,13.73
2022-11-21T16:41:37.138Z,11.68
2022-11-21T16:44:04.133Z,13.77
2022-11-21T16:46:30.970Z,11.95
2022-11-21T16:51:28.727Z,12.77
2022-11-21T16:53:57.008Z,15.02
2022-11-21T16:56:23.960Z,14.80
2022-11-21T16:58:50.806Z,15.57
2022-11-21T17:03:47.560Z,14.50
2022-11-21T17:06:16.928Z,20.80
2022-11-21T17:08:44.033Z,16.87
2022-11-21T17:11:29.307Z,25.35
2022-11-21T17:13:58.298Z,24.02
2022-11-21T17:16:25.162Z,19.65
2022-11-21T17:18:59.128Z,16.35
2022-11-21T17:21:26.934Z,19.30
2022-11-21T17:23:54.341Z,16.67
2022-11-21T17:26:23.185Z,17.35
2022-11-21T17:28:55.711Z,15.30
2022-11-21T17:31:23.180Z,18.67
2022-11-21T17:33:54.809Z,18.70
2022-11-21T17:36:27.106Z,19.35
2022-11-21T17:38:54.665Z,24.35
2022-11-21T17:41:23.062Z,25.95
2022-11-21T17:43:54.241Z,24.73
2022-11-21T17:46:21.125Z,25.80
2022-11-21T17:48:54.832Z,24.63
2022-11-21T17:51:25.701Z,28.25
2022-11-21T17:53:53.040Z,27.98
2022-11-21T17:56:24.854Z,31.75
2022-11-21T17:58:52.405Z,30.55
2022-11-21T18:01:20.229Z,31.80
2022-11-21T18:03:58.946Z,31.95
2022-11-21T18:06:28.399Z,34.83
2022-11-21T18:08:57.028Z,34.15
2022-11-21T18:11:23.896Z,32.67
2022-11-21T18:13:50.971Z,30.67
2022-11-21T18:16:20.572Z,37.15
2022-11-21T18:18:47.889Z,26.98
2022-11-21T18:21:16.922Z,29.05
2022-11-21T18:23:47.144Z,26.35
2022-11-21T18:26:15.915Z,25.77
2022-11-21T18:28:43.520Z,20.98
2022-11-21T18:31:14.305Z,20.10
2022-11-21T18:33:41.788Z,20.65
2022-11-21T18:36:10.159Z,19.62
2022-11-21T18:39:00.608Z,21.42
2022-11-21T18:41:30.752Z,20.40
2022-11-21T18:44:01.467Z,20.35
2022-11-21T18:46:29.605Z,19.98
2022-11-21T18:49:12.234Z,22.00
2022-11-21T18:51:39.117Z,22.85
2022-11-21T18:54:08.718Z,22.20
2022-11-21T18:56:36.947Z,22.62
2022-11-21T18:59:05.971Z,26.33
2022-11-21T19:01:33.737Z,23.55
2022-11-21T19:04:00.753Z,21.73
2022-11-21T19:06:28.239Z,20.17
2022-11-21T19:08:57.528Z,20.25
2022-11-21T19:11:27.325Z,20.40
2022-11-21T19:13:55.259Z,21.37
2022-11-21T19:16:25.187Z,18.20
2022-11-21T19:21:41.562Z,24.17
2022-11-21T19:24:13.437Z,23.65
2022-11-21T19:26:40.627Z,22.85
2022-11-21T19:29:07.574Z,21.95
2022-11-21T19:31:37.869Z,19.23
2022-11-21T19:34:09.718Z,19.80
2022-11-21T19:36:36.800Z,19.95
2022-11-21T19:39:03.680Z,18.65
2022-11-21T19:41:30.919Z,19.67
2022-11-21T19:44:01.994Z,21.73
2022-11-21T19:46:31.625Z,19.10
2022-11-21T19:48:59.220Z,23.75
2022-11-21T19:51:36.782Z,26.05
2022-11-21T19:54:07.904Z,24.12
2022-11-21T19:56:35.292Z,23.70
2022-11-21T19:59:02.398Z,22.37
2022-11-21T20:01:31.432Z,20.92
2022-11-21T20:04:00.523Z,19.27
2022-11-21T20:06:38.901Z,19.90
2022-11-21T20:09:11.363Z,19.20
2022-11-21T20:11:40.847Z,18.95
2022-11-21T20:14:08.217Z,20.27
2022-11-21T20:16:39.317Z,22.75
2022-11-21T20:19:11.230Z,24.63
2022-11-21T20:21:38.988Z,21.12
2022-11-21T20:24:06.730Z,22.62
2022-11-21T20:26:34.565Z,23.38
2022-11-21T20:29:01.511Z,23.62
2022-11-21T20:31:30.465Z,21.65
2022-11-21T20:34:02.549Z,22.73
2022-11-21T20:36:31.401Z,24.02
2022-11-21T20:39:02.691Z,22.13
2022-11-21T20:41:32.884Z,22.62
2022-11-21T20:44:53.289Z,22.02
2022-11-21T20:46:49.331Z,22.23
2022-11-21T20:49:16.204Z,19.50
2022-11-21T20:54:33.350Z,23.38
2022-11-21T20:57:00.275Z,21.58
2022-11-21T20:59:27.697Z,20.88
2022-11-21T21:01:54.871Z,26.08
2022-11-21T21:04:21.854Z,19.85
2022-11-21T21:06:48.723Z,22.33
2022-11-21T21:09:16.079Z,22.70
2022-11-21T21:11:58.220Z,17.77
2022-11-21T21:14:25.107Z,24.92
2022-11-21T21:19:18.831Z,21.62
2022-11-21T21:21:45.744Z,22.73
2022-11-21T21:24:13.566Z,24.90
2022-11-21T21:26:43.600Z,32.13
2022-11-21T21:29:12.385Z,27.50
2022-11-21T21:31:39.249Z,24.23
2022-11-21T21:36:32.864Z,29.02
2022-11-21T21:39:00.616Z,28.30
2022-11-21T21:41:29.440Z,22.67
2022-11-21T21:43:57.602Z,27.42
2022-11-21T21:46:26.630Z,32.22
2022-11-21T21:48:56.087Z,26.05
2022-11-21T21:51:25.393Z,28.75
2022-11-21T21:53:53.576Z,27.33
2022-11-21T21:56:21.548Z,29.60
2022-11-21T21:58:49.607Z,25.27
2022-11-21T22:01:27.095Z,25.35
2022-11-21T22:03:55.795Z,29.08
2022-11-21T22:06:23.090Z,28.33
2022-11-21T22:08:50.258Z,27.10
2022-11-21T22:11:21.298Z,28.10
2022-11-21T22:13:52.873Z,26.65
2022-11-21T22:16:19.743Z,27.40
2022-11-21T22:21:17.099Z,23.83
2022-11-21T22:24:09.329Z,26.58
2022-11-21T22:26:31.983Z,23.95
2022-11-21T22:28:58.849Z,22.65
2022-11-21T22:31:25.684Z,25.55
2022-11-21T22:33:52.744Z,32.83
2022-11-21T22:36:19.677Z,28.52
2022-11-21T22:38:46.590Z,26.75
2022-11-21T22:41:24.799Z,24.63
2022-11-21T22:43:55.890Z,27.10
2022-11-21T22:46:24.090Z,22.02
2022-11-21T22:48:51.380Z,28.02
2022-11-21T22:51:21.079Z,22.70
2022-11-21T22:53:48.899Z,23.27
2022-11-21T22:56:20.299Z,22.90
2022-11-21T22:58:47.791Z,24.55
2022-11-21T23:01:22.445Z,20.85
2022-11-21T23:03:49.964Z,21.35
2022-11-21T23:06:24.266Z,21.73
2022-11-21T23:08:55.608Z,22.35
2022-11-21T23:11:26.202Z,20.52
2022-11-21T23:13:54.608Z,22.13
2022-11-21T23:16:21.694Z,20.55
2022-11-21T23:18:49.150Z,16.90
2022-11-21T23:21:16.026Z,17.40
2022-11-21T23:23:44.151Z,18.45
2022-11-21T23:26:11.701Z,19.87
2022-11-21T23:28:38.624Z,21.42
2022-11-21T23:31:05.460Z,21.20
2022-11-21T23:35:59.049Z,20.55
2022-11-21T23:38:25.915Z,21.50
2022-11-21T23:40:52.793Z,27.05
2022-11-21T23:45:53.750Z,21.37
2022-11-21T23:48:21.518Z,20.25
2022-11-21T23:50:50.955Z,23.40
2022-11-21T23:53:18.798Z,21.90
2022-11-21T23:55:46.065Z,22.10
2022-11-21T23:58:13.016Z,19.52
